createdAt,value
2022-12-28T00:01:46.825Z,2.60
2022-12-28T00:04:15.479Z,2.60
2022-12-28T00:06:43.055Z,2.60
2022-12-28T00:09:13.135Z,2.50
2022-12-28T00:11:40.689Z,2.57
2022-12-28T00:14:08.245Z,2.60
2022-12-28T00:16:39.785Z,2.50
2022-12-28T00:19:08.650Z,2.57
2022-12-28T00:21:36.006Z,2.70
2022-12-28T00:24:03.997Z,2.40
2022-12-28T00:26:32.792Z,2.50
2022-12-28T00:29:04.656Z,2.60
2022-12-28T00:31:33.913Z,2.50
2022-12-28T00:34:01.579Z,2.30
2022-12-28T00:37:09.696Z,2.30
2022-12-28T00:39:16.573Z,2.30
2022-12-28T00:41:43.925Z,2.10
2022-12-28T00:44:11.300Z,2.40
2022-12-28T00:46:38.978Z,2.70
2022-12-28T00:49:06.350Z,2.27
2022-12-28T00:51:33.825Z,2.20
2022-12-28T00:54:01.227Z,2.23
2022-12-28T00:56:28.621Z,2.47
2022-12-28T00:58:57.548Z,2.17
2022-12-28T01:01:25.995Z,2.43
2022-12-28T01:03:55.811Z,2.67
2022-12-28T01:06:25.789Z,2.50
2022-12-28T01:08:53.496Z,2.33
2022-12-28T01:11:22.724Z,2.37
2022-12-28T01:13:50.741Z,2.47
2022-12-28T01:16:19.404Z,2.57
2022-12-28T01:18:48.697Z,2.30
2022-12-28T01:21:17.055Z,2.10
2022-12-28T01:23:45.167Z,2.60
2022-12-28T01:26:12.617Z,2.40
2022-12-28T01:28:40.234Z,3.00
2022-12-28T01:31:12.595Z,2.37
2022-12-28T01:33:40.013Z,2.47
2022-12-28T01:36:12.574Z,2.57
2022-12-28T01:38:40.045Z,2.80
2022-12-28T01:41:08.445Z,2.80
2022-12-28T01:43:44.645Z,2.50
2022-12-28T01:46:15.927Z,2.53
2022-12-28T01:48:59.992Z,2.47
2022-12-28T01:51:29.888Z,2.57
2022-12-28T01:53:59.419Z,2.90
2022-12-28T01:56:27.607Z,2.57
2022-12-28T01:58:55.714Z,2.60
2022-12-28T02:01:23.167Z,2.80
2022-12-28T02:03:50.710Z,2.40
2022-12-28T02:06:18.876Z,2.30
2022-12-28T02:08:53.833Z,2.40
2022-12-28T02:11:21.595Z,2.53
2022-12-28T02:13:50.095Z,2.47
2022-12-28T02:16:43.655Z,2.60
2022-12-28T02:19:14.411Z,2.80
2022-12-28T02:22:01.282Z,2.40
2022-12-28T02:24:28.574Z,2.83
2022-12-28T02:27:07.989Z,2.73
2022-12-28T02:29:47.723Z,2.23
2022-12-28T02:32:18.139Z,2.70
2022-12-28T02:34:49.478Z,3.07
2022-12-28T02:37:19.893Z,2.60
2022-12-28T02:39:49.680Z,3.20
2022-12-28T02:42:18.681Z,3.00
2022-12-28T02:45:04.771Z,2.77
2022-12-28T02:47:50.773Z,2.87
2022-12-28T02:50:18.357Z,3.13
2022-12-28T02:53:07.699Z,2.97
2022-12-28T02:56:05.869Z,2.77
2022-12-28T02:58:36.291Z,2.83
2022-12-28T03:01:09.993Z,3.20
2022-12-28T03:03:48.157Z,3.03
2022-12-28T03:06:54.100Z,3.20
2022-12-28T03:09:37.125Z,3.60
2022-12-28T03:12:11.847Z,3.07
2022-12-28T03:14:45.894Z,2.80
2022-12-28T03:17:33.451Z,3.10
2022-12-28T03:20:21.321Z,2.93
2022-12-28T03:23:07.421Z,3.10
2022-12-28T03:25:57.439Z,2.80
2022-12-28T03:28:50.787Z,3.23
2022-12-28T03:31:21.121Z,3.00
2022-12-28T03:33:54.264Z,3.07
2022-12-28T03:36:21.770Z,3.60
2022-12-28T03:38:54.664Z,3.17
2022-12-28T03:41:28.258Z,3.17
2022-12-28T03:44:04.292Z,3.70
2022-12-28T03:46:38.039Z,2.83
2022-12-28T03:49:05.585Z,3.10
2022-12-28T03:51:35.368Z,3.20
2022-12-28T03:54:14.651Z,3.13
2022-12-28T03:56:46.784Z,2.90
2022-12-28T03:59:15.524Z,3.50
2022-12-28T04:01:46.113Z,3.37
2022-12-28T04:04:14.298Z,3.17
2022-12-28T04:06:44.289Z,3.50
2022-12-28T04:09:11.664Z,3.10
2022-12-28T04:11:41.900Z,3.30
2022-12-28T04:14:16.257Z,3.23
2022-12-28T04:27:26.925Z,3.87
2022-12-28T04:29:59.053Z,4.57
2022-12-28T04:32:26.398Z,3.50
2022-12-28T04:34:54.047Z,3.63
2022-12-28T04:37:21.446Z,3.63
2022-12-28T04:39:54.662Z,3.40
2022-12-28T04:42:23.914Z,4.23
2022-12-28T04:44:51.421Z,4.27
2022-12-28T04:47:18.787Z,4.87
2022-12-28T04:49:46.302Z,4.47
2022-12-28T04:52:13.730Z,4.40
2022-12-28T04:54:41.073Z,5.10
2022-12-28T04:57:08.465Z,4.77
2022-12-28T04:59:35.939Z,5.30
2022-12-28T05:02:03.477Z,5.23
2022-12-28T05:04:30.944Z,5.90
2022-12-28T05:06:58.294Z,5.40
2022-12-28T05:09:25.635Z,4.67
2022-12-28T05:11:53.020Z,5.13
2022-12-28T05:14:20.378Z,5.60
2022-12-28T05:16:51.138Z,5.47
2022-12-28T05:19:18.533Z,5.80
2022-12-28T05:21:45.850Z,5.93
2022-12-28T05:24:13.165Z,5.60
2022-12-28T05:26:40.507Z,6.00
2022-12-28T05:29:07.783Z,5.77
2022-12-28T05:31:35.295Z,5.43
2022-12-28T05:34:02.861Z,5.90
2022-12-28T05:36:30.407Z,5.37
2022-12-28T05:38:57.882Z,6.00
2022-12-28T05:41:26.835Z,5.80
2022-12-28T05:43:54.253Z,5.80
2022-12-28T05:46:26.364Z,5.43
2022-12-28T05:48:55.417Z,6.20
2022-12-28T05:51:23.804Z,5.87
2022-12-28T05:53:51.421Z,6.17
2022-12-28T05:56:23.191Z,6.23
2022-12-28T05:58:57.479Z,6.00
2022-12-28T06:01:26.365Z,5.97
2022-12-28T06:03:55.114Z,5.10
2022-12-28T06:06:22.647Z,5.83
2022-12-28T06:08:50.282Z,7.97
2022-12-28T06:11:19.005Z,8.43
2022-12-28T06:13:46.761Z,7.23
2022-12-28T06:16:14.141Z,6.63
2022-12-28T06:18:41.979Z,6.67
2022-12-28T06:21:11.399Z,7.30
2022-12-28T06:23:38.774Z,7.10
2022-12-28T06:26:07.214Z,6.37
2022-12-28T06:28:34.988Z,6.47
2022-12-28T06:31:06.570Z,6.77
2022-12-28T06:33:34.553Z,6.50
2022-12-28T06:36:02.241Z,5.87
2022-12-28T06:38:33.066Z,5.57
2022-12-28T06:41:13.901Z,5.87
2022-12-28T06:43:42.697Z,6.00
2022-12-28T06:46:10.381Z,6.23
2022-12-28T06:48:38.212Z,6.23
2022-12-28T06:51:07.229Z,6.73
2022-12-28T06:53:35.830Z,6.97
2022-12-28T06:56:05.040Z,6.07
2022-12-28T06:58:32.889Z,6.37
2022-12-28T07:01:10.810Z,7.50
2022-12-28T07:03:38.188Z,6.70
2022-12-28T07:06:06.376Z,7.83
2022-12-28T07:08:33.977Z,6.53
2022-12-28T07:11:05.489Z,6.13
2022-12-28T07:13:33.009Z,6.63
2022-12-28T07:16:08.853Z,7.03
2022-12-28T07:18:36.381Z,6.77
2022-12-28T07:21:05.355Z,6.90
2022-12-28T07:23:33.100Z,6.70
2022-12-28T07:26:05.179Z,6.97
2022-12-28T07:28:32.537Z,6.60
2022-12-28T07:30:59.976Z,7.00
2022-12-28T07:33:27.441Z,6.60
2022-12-28T07:35:54.910Z,6.77
2022-12-28T07:38:22.341Z,7.17
2022-12-28T07:40:49.693Z,6.90
2022-12-28T07:43:16.989Z,6.97
2022-12-28T07:45:44.513Z,7.30
2022-12-28T07:48:12.020Z,7.67
2022-12-28T07:50:39.488Z,6.90
2022-12-28T07:53:06.793Z,7.10
2022-12-28T07:55:34.346Z,7.60
2022-12-28T07:58:02.221Z,7.40
2022-12-28T08:00:30.517Z,6.87
2022-12-28T08:02:58.923Z,7.17
2022-12-28T08:05:26.501Z,7.23
2022-12-28T08:08:03.215Z,6.90
2022-12-28T08:10:31.160Z,7.00
2022-12-28T08:13:00.129Z,6.60
2022-12-28T08:15:27.909Z,6.97
2022-12-28T08:17:55.761Z,7.10
2022-12-28T08:20:24.424Z,6.70
2022-12-28T08:22:52.132Z,7.43
2022-12-28T08:25:19.617Z,6.90
2022-12-28T08:27:46.964Z,7.03
2022-12-28T08:30:14.557Z,6.53
2022-12-28T08:32:41.957Z,6.13
2022-12-28T08:35:09.607Z,6.93
2022-12-28T08:37:37.474Z,6.10
2022-12-28T08:40:05.056Z,6.80
2022-12-28T08:42:32.578Z,6.97
2022-12-28T08:45:00.007Z,7.33
2022-12-28T08:47:27.371Z,7.17
2022-12-28T08:49:54.798Z,6.60
2022-12-28T08:52:22.271Z,6.57
2022-12-28T08:54:49.683Z,6.43
2022-12-28T08:57:17.072Z,6.97
2022-12-28T08:59:44.927Z,6.20
2022-12-28T09:02:13.974Z,6.57
2022-12-28T09:04:42.126Z,6.60
2022-12-28T09:07:09.535Z,6.23
2022-12-28T09:09:36.933Z,6.50
2022-12-28T09:12:04.420Z,6.40
2022-12-28T09:14:31.940Z,6.27
2022-12-28T09:16:59.417Z,6.30
2022-12-28T09:19:26.825Z,6.20
2022-12-28T09:21:55.570Z,6.27
2022-12-28T09:24:23.565Z,7.00
2022-12-28T09:26:53.409Z,6.63
2022-12-28T09:29:21.207Z,6.97
2022-12-28T09:31:48.627Z,6.90
2022-12-28T09:37:06.820Z,6.33
2022-12-28T09:39:36.780Z,6.67
2022-12-28T09:42:05.694Z,6.60
2022-12-28T09:44:36.202Z,7.57
2022-12-28T09:47:03.720Z,8.97
2022-12-28T09:50:03.347Z,9.47
2022-12-28T09:52:33.932Z,9.07
2022-12-28T09:55:17.033Z,9.00
2022-12-28T09:57:46.954Z,8.50
2022-12-28T10:00:19.586Z,7.53
2022-12-28T10:03:11.224Z,6.73
2022-12-28T10:05:38.883Z,6.67
2022-12-28T10:08:06.725Z,6.20
2022-12-28T10:10:34.199Z,6.63
2022-12-28T10:13:06.662Z,6.20
2022-12-28T10:15:34.134Z,6.73
2022-12-28T10:18:01.506Z,6.00
2022-12-28T10:20:28.875Z,6.30
2022-12-28T10:22:57.564Z,6.53
2022-12-28T10:25:26.555Z,6.60
2022-12-28T10:27:54.353Z,6.27
2022-12-28T10:30:28.486Z,6.23
2022-12-28T10:33:03.691Z,5.93
2022-12-28T10:35:31.340Z,5.97
2022-12-28T10:38:18.658Z,6.17
2022-12-28T10:40:46.492Z,6.03
2022-12-28T10:43:20.467Z,6.00
2022-12-28T10:45:49.861Z,5.50
2022-12-28T10:48:22.392Z,5.67
2022-12-28T10:50:55.202Z,5.73
2022-12-28T10:53:28.810Z,5.37
2022-12-28T10:56:19.588Z,5.47
2022-12-28T10:58:48.014Z,5.90
2022-12-28T11:01:15.571Z,5.33
2022-12-28T11:03:57.258Z,5.80
2022-12-28T11:06:28.798Z,5.90
2022-12-28T11:09:05.531Z,5.80
2022-12-28T11:11:33.444Z,5.17
2022-12-28T11:14:03.753Z,5.53
2022-12-28T11:16:33.980Z,5.10
2022-12-28T11:19:01.611Z,5.33
2022-12-28T11:21:29.022Z,3.90
2022-12-28T11:23:57.756Z,4.87
2022-12-28T11:26:26.271Z,4.20
2022-12-28T11:28:54.790Z,4.70
2022-12-28T11:31:25.242Z,5.93
2022-12-28T11:33:55.129Z,5.63
2022-12-28T11:36:24.039Z,6.10
2022-12-28T11:38:52.831Z,5.53
2022-12-28T11:41:33.429Z,5.23
2022-12-28T11:44:03.038Z,4.87
2022-12-28T11:46:30.435Z,5.63
2022-12-28T11:48:59.419Z,4.57
2022-12-28T11:51:26.884Z,4.87
2022-12-28T11:53:59.027Z,5.40
2022-12-28T11:56:51.405Z,3.67
2022-12-28T11:59:38.803Z,3.13
2022-12-28T12:02:29.638Z,3.63
2022-12-28T12:04:57.252Z,2.83
2022-12-28T12:07:31.520Z,2.40
2022-12-28T12:10:15.171Z,2.10
2022-12-28T12:12:50.584Z,2.80
2022-12-28T12:15:19.967Z,2.50
2022-12-28T12:17:55.883Z,2.17
2022-12-28T12:20:42.169Z,2.53
2022-12-28T12:23:12.779Z,2.83
2022-12-28T12:25:40.528Z,2.30
2022-12-28T12:28:11.992Z,2.13
2022-12-28T12:30:39.511Z,2.03
2022-12-28T12:33:13.620Z,1.40
2022-12-28T12:35:59.351Z,2.17
2022-12-28T12:38:40.776Z,1.50
2022-12-28T12:41:17.021Z,2.47
2022-12-28T12:43:44.390Z,1.60
2022-12-28T12:46:24.915Z,1.40
2022-12-28T12:49:11.080Z,2.30
2022-12-28T12:51:56.861Z,1.90
2022-12-28T12:54:24.287Z,5.33
2022-12-28T12:57:01.356Z,3.37
2022-12-28T12:59:28.709Z,3.00
2022-12-28T13:01:56.160Z,2.17
2022-12-28T13:04:25.823Z,3.47
2022-12-28T13:06:56.849Z,2.10
2022-12-28T13:09:25.737Z,2.27
2022-12-28T13:11:53.292Z,2.00
2022-12-28T13:14:21.968Z,2.00
2022-12-28T13:16:50.901Z,2.23
2022-12-28T13:19:28.925Z,2.00
2022-12-28T13:21:59.580Z,2.60
2022-12-28T13:24:35.907Z,1.70
2022-12-28T13:27:07.668Z,1.63
2022-12-28T13:29:40.083Z,1.80
2022-12-28T13:32:24.320Z,1.50
2022-12-28T13:34:51.753Z,1.70
2022-12-28T13:37:19.899Z,1.87
2022-12-28T13:39:48.032Z,1.50
2022-12-28T13:42:15.394Z,1.77
2022-12-28T13:44:48.752Z,1.03
2022-12-28T13:47:18.622Z,1.60
2022-12-28T13:49:54.857Z,1.90
2022-12-28T13:52:25.644Z,1.70
2022-12-28T13:54:56.233Z,1.83
2022-12-28T14:00:12.738Z,1.70
2022-12-28T14:02:41.740Z,1.90
2022-12-28T14:05:09.736Z,1.30
2022-12-28T14:07:37.794Z,1.50
2022-12-28T14:10:05.661Z,1.80
2022-12-28T14:12:33.119Z,1.80
2022-12-28T14:15:01.232Z,1.70
2022-12-28T14:17:28.797Z,1.60
2022-12-28T14:19:57.776Z,1.70
2022-12-28T14:22:32.805Z,1.70
2022-12-28T14:25:00.930Z,1.67
2022-12-28T14:27:28.694Z,1.50
2022-12-28T14:29:58.200Z,1.83
2022-12-28T14:32:26.381Z,1.50
2022-12-28T14:34:58.320Z,1.70
2022-12-28T14:37:27.692Z,1.93
2022-12-28T14:39:58.981Z,1.90
2022-12-28T14:42:27.276Z,1.80
2022-12-28T14:44:56.754Z,1.90
2022-12-28T14:47:34.565Z,1.57
2022-12-28T14:50:02.833Z,1.47
2022-12-28T14:52:30.299Z,1.70
2022-12-28T14:54:57.759Z,1.47
2022-12-28T14:57:40.137Z,1.57
2022-12-28T15:00:21.567Z,1.57
2022-12-28T15:02:49.355Z,1.50
2022-12-28T15:05:52.362Z,1.63
2022-12-28T15:08:19.823Z,2.90
2022-12-28T15:10:48.837Z,2.17
2022-12-28T15:13:17.271Z,1.70
2022-12-28T15:15:46.000Z,1.50
2022-12-28T15:18:13.406Z,1.50
2022-12-28T15:20:40.971Z,1.80
2022-12-28T15:23:08.466Z,1.70
2022-12-28T15:25:35.998Z,1.60
2022-12-28T15:28:03.757Z,1.50
2022-12-28T15:30:31.549Z,1.30
2022-12-28T15:32:59.203Z,1.77
2022-12-28T15:35:27.187Z,1.63
2022-12-28T15:37:54.550Z,1.57
2022-12-28T15:40:22.227Z,1.50
2022-12-28T15:42:49.684Z,1.50
2022-12-28T15:45:17.806Z,1.60
2022-12-28T15:47:45.584Z,1.23
2022-12-28T15:50:12.991Z,1.57
2022-12-28T15:52:40.628Z,1.47
2022-12-28T15:55:08.189Z,1.63
2022-12-28T15:57:35.714Z,1.37
2022-12-28T16:00:03.930Z,2.00
2022-12-28T16:02:32.484Z,1.50
2022-12-28T16:05:00.007Z,1.63
2022-12-28T16:07:27.629Z,1.90
2022-12-28T16:09:55.077Z,1.60
2022-12-28T16:12:22.482Z,1.80
2022-12-28T16:14:49.935Z,1.80
2022-12-28T16:17:17.395Z,1.60
2022-12-28T16:19:44.744Z,1.47
2022-12-28T16:22:12.443Z,1.90
2022-12-28T16:24:39.962Z,2.43
2022-12-28T16:27:08.519Z,2.00
2022-12-28T16:29:36.765Z,1.60
2022-12-28T16:32:04.311Z,2.10
2022-12-28T16:34:32.276Z,2.17
2022-12-28T16:36:59.923Z,2.10
2022-12-28T16:39:28.927Z,1.90
2022-12-28T16:41:57.033Z,2.00
2022-12-28T16:44:26.918Z,1.70
2022-12-28T16:46:56.663Z,2.00
2022-12-28T16:49:24.132Z,1.90
2022-12-28T16:51:51.676Z,2.10
2022-12-28T16:54:19.979Z,2.10
2022-12-28T16:56:48.276Z,5.50
2022-12-28T16:59:24.680Z,2.10
2022-12-28T17:01:56.058Z,2.20
2022-12-28T17:04:23.681Z,2.00
2022-12-28T17:06:51.834Z,1.90
2022-12-28T17:09:19.929Z,1.90
2022-12-28T17:11:48.544Z,1.97
2022-12-28T17:14:29.316Z,3.00
2022-12-28T17:17:03.047Z,3.17
2022-12-28T17:19:30.775Z,2.30
2022-12-28T17:21:58.543Z,2.43
2022-12-28T17:24:26.146Z,2.33
2022-12-28T17:26:53.615Z,2.57
2022-12-28T17:29:21.121Z,2.23
2022-12-28T17:31:48.686Z,2.60
2022-12-28T17:34:16.151Z,2.70
2022-12-28T17:36:43.545Z,2.33
2022-12-28T17:39:11.018Z,2.80
2022-12-28T17:41:38.517Z,2.33
2022-12-28T17:44:06.398Z,2.67
2022-12-28T17:46:40.687Z,3.07
2022-12-28T17:49:11.769Z,2.93
2022-12-28T17:51:42.554Z,2.87
2022-12-28T17:54:13.777Z,3.47
2022-12-28T17:56:42.025Z,4.83
2022-12-28T17:59:12.829Z,4.40
2022-12-28T18:01:40.490Z,4.97
2022-12-28T18:04:08.960Z,3.00
2022-12-28T18:06:36.585Z,2.90
2022-12-28T18:09:04.115Z,3.10
2022-12-28T18:11:31.782Z,3.13
2022-12-28T18:13:59.339Z,2.90
2022-12-28T18:16:27.982Z,2.87
2022-12-28T18:18:55.498Z,3.03
2022-12-28T18:21:26.054Z,2.53
2022-12-28T18:23:53.952Z,3.00
2022-12-28T18:26:23.147Z,2.80
2022-12-28T18:28:50.725Z,2.80
2022-12-28T18:31:18.218Z,2.73
2022-12-28T18:33:45.737Z,3.00
2022-12-28T18:36:17.746Z,2.97
2022-12-28T18:38:46.040Z,2.90
2022-12-28T18:41:17.872Z,3.37
2022-12-28T18:43:45.415Z,3.43
2022-12-28T18:46:12.964Z,3.47
2022-12-28T18:48:41.037Z,2.60
2022-12-28T18:51:09.759Z,3.37
2022-12-28T18:53:37.419Z,5.10
2022-12-28T18:56:04.861Z,3.57
2022-12-28T18:58:34.556Z,7.00
2022-12-28T19:01:06.432Z,11.77
2022-12-28T19:03:34.290Z,26.33
2022-12-28T19:06:03.400Z,31.53
2022-12-28T19:08:31.847Z,22.73
2022-12-28T19:10:59.491Z,11.23
2022-12-28T19:13:26.994Z,6.47
2022-12-28T19:15:54.460Z,4.70
2022-12-28T19:18:21.952Z,4.30
2022-12-28T19:20:49.474Z,4.80
2022-12-28T19:23:16.851Z,3.73
2022-12-28T19:25:44.381Z,4.40
2022-12-28T19:28:11.819Z,3.80
2022-12-28T19:30:39.264Z,4.40
2022-12-28T19:33:06.669Z,4.37
2022-12-28T19:35:34.064Z,4.60
2022-12-28T19:38:01.586Z,3.47
2022-12-28T19:40:29.023Z,3.97
2022-12-28T19:42:56.529Z,4.17
2022-12-28T19:45:26.131Z,3.73
2022-12-28T19:47:53.924Z,3.40
2022-12-28T19:50:23.252Z,4.17
2022-12-28T19:52:50.975Z,3.43
2022-12-28T19:55:18.453Z,3.53
2022-12-28T19:57:45.879Z,3.33
2022-12-28T20:00:13.794Z,3.33
2022-12-28T20:02:41.377Z,3.13
2022-12-28T20:05:09.354Z,3.10
2022-12-28T20:07:40.371Z,3.40
2022-12-28T20:10:07.990Z,3.00
2022-12-28T20:12:35.543Z,3.40
2022-12-28T20:15:02.977Z,3.60
2022-12-28T20:17:30.552Z,3.47
2022-12-28T20:19:58.049Z,3.07
2022-12-28T20:22:25.541Z,2.80
2022-12-28T20:24:53.081Z,3.40
2022-12-28T20:27:20.728Z,3.07
2022-12-28T20:29:48.205Z,3.00
2022-12-28T20:32:15.754Z,3.30
2022-12-28T20:34:43.300Z,3.30
2022-12-28T20:37:10.755Z,3.20
2022-12-28T20:39:38.869Z,3.27
2022-12-28T20:42:25.130Z,3.00
2022-12-28T20:44:52.567Z,3.10
2022-12-28T20:47:20.097Z,2.90
2022-12-28T20:49:47.617Z,2.80
2022-12-28T20:52:15.071Z,2.70
2022-12-28T20:54:42.684Z,2.80
2022-12-28T20:57:10.129Z,2.60
2022-12-28T20:59:37.613Z,2.93
2022-12-28T21:02:05.283Z,3.13
2022-12-28T21:04:32.884Z,2.90
2022-12-28T21:07:00.683Z,2.63
2022-12-28T21:09:30.696Z,3.20
2022-12-28T21:11:58.246Z,2.90
2022-12-28T21:14:25.707Z,2.93
2022-12-28T21:16:53.436Z,3.07
2022-12-28T21:19:21.515Z,3.40
2022-12-28T21:21:48.992Z,3.00
2022-12-28T21:24:19.633Z,3.00
2022-12-28T21:26:48.196Z,3.00
2022-12-28T21:29:19.167Z,2.83
2022-12-28T21:31:52.181Z,2.90
2022-12-28T21:34:19.691Z,2.80
2022-12-28T21:36:47.103Z,2.50
2022-12-28T21:39:14.567Z,2.87
2022-12-28T21:41:51.004Z,2.77
2022-12-28T21:44:19.992Z,2.60
2022-12-28T21:46:49.007Z,3.10
2022-12-28T21:49:16.638Z,2.80
2022-12-28T21:51:44.223Z,2.80
2022-12-28T21:54:16.157Z,2.87
2022-12-28T21:56:44.692Z,2.77
2022-12-28T21:59:16.324Z,2.77
2022-12-28T22:02:02.764Z,2.90
2022-12-28T22:04:49.427Z,2.60
2022-12-28T22:07:18.322Z,2.70
2022-12-28T22:10:04.717Z,2.63
2022-12-28T22:12:35.283Z,2.80
2022-12-28T22:15:23.229Z,2.87
2022-12-28T22:17:52.993Z,2.97
2022-12-28T22:20:20.519Z,2.40
2022-12-28T22:22:48.051Z,2.73
2022-12-28T22:25:15.801Z,2.67
2022-12-28T22:27:43.383Z,2.70
2022-12-28T22:30:11.252Z,2.93
2022-12-28T22:32:38.796Z,2.77
2022-12-28T22:35:06.698Z,2.63
2022-12-28T22:37:37.583Z,2.67
2022-12-28T22:40:05.324Z,2.50
2022-12-28T22:42:33.132Z,2.60
2022-12-28T22:45:00.575Z,3.03
2022-12-28T22:47:28.246Z,2.70
2022-12-28T22:49:55.854Z,2.60
2022-12-28T22:52:23.262Z,2.70
2022-12-28T22:54:51.205Z,2.67
2022-12-28T22:57:18.648Z,2.63
2022-12-28T22:59:46.148Z,2.93
2022-12-28T23:02:13.792Z,2.73
2022-12-28T23:04:41.391Z,2.23
2022-12-28T23:07:08.799Z,2.57
2022-12-28T23:09:36.596Z,2.57
2022-12-28T23:12:04.227Z,2.70
2022-12-28T23:15:04.086Z,2.60
2022-12-28T23:17:31.557Z,2.60
2022-12-28T23:20:17.690Z,2.60
2022-12-28T23:23:03.840Z,2.53
2022-12-28T23:25:49.759Z,2.13
2022-12-28T23:28:17.678Z,2.83
2022-12-28T23:30:46.931Z,2.57
2022-12-28T23:33:14.777Z,2.47
2022-12-28T23:35:42.226Z,2.63
2022-12-28T23:38:09.623Z,2.83
2022-12-28T23:40:39.392Z,2.60
2022-12-28T23:43:06.953Z,2.27
2022-12-28T23:45:34.889Z,2.70
2022-12-28T23:48:02.518Z,2.20
2022-12-28T23:50:30.307Z,2.60
2022-12-28T23:52:57.911Z,2.70
2022-12-28T23:55:25.431Z,2.80
2022-12-28T23:57:52.848Z,2.80
